Rayne, Louisiana
Current Conditions -  °F | °C
As of 11:53 AM on Tuesday 21 Oct 2014 (Local Time) from KLFT Reporting Station
Clear Clear  
Wind Chill: 77°   Ceiling: Unl
Heat Index: 78°   Visibility: 10mi
Dew Point: 54°   Wind: 6mph
Humidity: 45%   Direction: 50°NE
Pressure: 30.07"   Gusts: NA
Location:  30.24°N, 92.27°W
Report Text: KLFT 211653Z 05005KT 10SM CLR 25/12 A3007 RMK AO2 SLP182 T02500122
Loading
Personal Weather Stations






























Interactive Weather Map
Tropical Storm Tracking
New forecast layout! Learn more

10-Day Weather Forecast

Advertisements
Track Severe Weather on mobile